Time;durP1;ratioP1;P1;durP2;ratioP2;P2;SDS_P1;SDS_P2;PMS_P1;PMS_P2;Temp;Humidity;BMP_temperature;BMP_pressure;BME280_temperature;BME280_humidity;BME280_pressure;Samples;Min_cycle;Max_cycle;Signal;HPM_P1;HPM_P2
2022/09/14 00:01:39;;;;;;;5.83;2.43;;;14.20;99.90;;;;;;4980545;28;20046;-78
2022/09/14 00:04:11;;;;;;;6.68;2.72;;;14.20;99.90;;;;;;4985436;28;20777;-77
2022/09/14 00:06:37;;;;;;;4.53;2.30;;;14.20;99.90;;;;;;4960536;28;20058;-77
2022/09/14 00:09:05;;;;;;;6.05;2.40;;;14.10;99.90;;;;;;4967441;28;20057;-77
2022/09/14 00:11:32;;;;;;;7.72;2.67;;;14.20;99.90;;;;;;4975739;28;20059;-77
2022/09/14 00:13:59;;;;;;;6.55;2.67;;;14.20;99.90;;;;;;4965059;28;20077;-77
2022/09/14 00:16:31;;;;;;;6.00;2.60;;;14.20;99.90;;;;;;4963121;28;20836;-77
2022/09/14 00:19:00;;;;;;;5.97;2.40;;;14.10;99.90;;;;;;4963907;28;20122;-77
2022/09/14 00:21:26;;;;;;;7.00;2.50;;;14.10;99.90;;;;;;4984457;28;20054;-77
2022/09/14 00:23:52;;;;;;;4.70;2.30;;;14.10;99.90;;;;;;4985016;28;20066;-77
2022/09/14 00:26:20;;;;;;;6.82;2.60;;;14.10;99.90;;;;;;4981888;28;20616;-77
2022/09/14 00:28:48;;;;;;;12.55;2.80;;;14.10;99.90;;;;;;4964644;28;20045;-77
2022/09/14 00:31:15;;;;;;;6.05;2.90;;;14.10;99.90;;;;;;4963349;28;20046;-77
2022/09/14 00:33:42;;;;;;;5.40;2.47;;;14.10;99.90;;;;;;4966447;28;20046;-77
2022/09/14 00:36:10;;;;;;;5.38;2.42;;;14.10;99.90;;;;;;4980027;28;20068;-77
2022/09/14 00:38:37;;;;;;;7.55;2.50;;;14.20;99.90;;;;;;4983866;28;20046;-76
2022/09/14 00:41:05;;;;;;;5.07;2.37;;;14.20;99.90;;;;;;4964956;28;20141;-77
2022/09/14 00:43:30;;;;;;;5.43;2.22;;;14.20;99.90;;;;;;4966767;28;20482;-76
2022/09/14 00:45:58;;;;;;;5.30;2.15;;;14.20;99.90;;;;;;4979637;28;20092;-76
2022/09/14 00:48:25;;;;;;;3.67;2.17;;;14.20;99.90;;;;;;4966865;28;20046;-77
2022/09/14 00:50:52;;;;;;;4.82;2.45;;;14.20;99.90;;;;;;4956609;28;20162;-77
2022/09/14 00:53:18;;;;;;;4.93;2.17;;;14.20;99.90;;;;;;4985613;28;20499;-77
2022/09/14 00:55:44;;;;;;;5.60;2.40;;;14.20;99.90;;;;;;4960046;28;20060;-76
2022/09/14 00:58:10;;;;;;;6.00;2.53;;;14.10;99.90;;;;;;4984551;28;20042;-77
2022/09/14 01:00:35;;;;;;;5.60;2.50;;;14.20;99.90;;;;;;4966455;28;20523;-77
2022/09/14 01:03:01;;;;;;;5.35;2.90;;;14.10;99.90;;;;;;4982411;28;20050;-77
2022/09/14 01:06:14;;;;;;;8.95;3.25;;;14.10;99.90;;;;;;4956485;28;20088;-77
2022/09/14 01:09:08;;;;;;;5.97;3.22;;;14.10;99.90;;;;;;4905435;28;21031;-76
2022/09/14 01:12:00;;;;;;;6.50;2.90;;;14.20;99.90;;;;;;4964356;28;20100;-77
2022/09/14 01:15:29;;;;;;;7.15;3.28;;;14.10;99.90;;;;;;4966709;28;20142;-77
2022/09/14 01:18:22;;;;;;;6.47;2.80;;;14.10;99.90;;;;;;4933704;28;20130;-77
2022/09/14 01:21:01;;;;;;;7.10;3.00;;;14.10;99.90;;;;;;4939894;28;20118;-76
2022/09/14 01:23:36;;;;;;;7.85;3.28;;;14.00;99.90;;;;;;4970652;28;20042;-76
2022/09/14 01:26:24;;;;;;;6.00;3.17;;;14.00;99.90;;;;;;4963811;28;21382;-77
2022/09/14 01:29:02;;;;;;;6.75;3.30;;;14.00;99.90;;;;;;4978724;28;20074;-77
2022/09/14 01:31:33;;;;;;;7.25;3.50;;;13.90;99.90;;;;;;4963839;28;20054;-77
2022/09/14 01:34:13;;;;;;;6.95;3.35;;;13.90;99.90;;;;;;4966792;28;20546;-77
2022/09/14 01:36:43;;;;;;;4.93;2.95;;;13.90;99.90;;;;;;4963235;28;20109;-76
2022/09/14 01:39:10;;;;;;;6.32;3.30;;;13.90;99.90;;;;;;4976711;28;20112;-77
2022/09/14 01:41:37;;;;;;;7.78;4.25;;;14.00;99.90;;;;;;4981207;28;20509;-77
2022/09/14 01:44:15;;;;;;;6.00;3.50;;;13.90;99.90;;;;;;4960397;28;20042;-76
2022/09/14 01:46:47;;;;;;;5.78;3.45;;;13.90;99.90;;;;;;4983746;28;20406;-77
2022/09/14 01:49:18;;;;;;;6.13;3.50;;;13.90;99.90;;;;;;4964091;28;20488;-77
2022/09/14 01:52:01;;;;;;;5.82;2.97;;;13.90;99.90;;;;;;4979147;28;20048;-77
2022/09/14 01:54:33;;;;;;;5.50;2.90;;;13.80;99.90;;;;;;4960261;28;20401;-77
2022/09/14 01:57:05;;;;;;;5.80;2.97;;;13.70;99.90;;;;;;4966410;28;20135;-77
2022/09/14 01:59:36;;;;;;;6.28;2.97;;;13.70;99.90;;;;;;4979774;28;20073;-77
2022/09/14 02:02:08;;;;;;;7.57;3.10;;;13.70;99.90;;;;;;4959588;28;20548;-77
2022/09/14 02:04:58;;;;;;;7.90;3.05;;;13.70;99.90;;;;;;4956882;28;20499;-77
2022/09/14 02:07:24;;;;;;;5.60;3.25;;;13.60;99.90;;;;;;4962322;28;20101;-77
2022/09/14 02:09:52;;;;;;;4.65;2.78;;;13.60;99.90;;;;;;4964985;28;20044;-77
2022/09/14 02:12:18;;;;;;;5.97;3.20;;;13.50;99.90;;;;;;4960639;28;20057;-77
2022/09/14 02:14:45;;;;;;;7.13;3.00;;;13.50;99.90;;;;;;4971277;28;20135;-77
2022/09/14 02:17:12;;;;;;;5.57;3.10;;;13.60;99.90;;;;;;4961361;28;20134;-77
2022/09/14 02:19:46;;;;;;;5.70;2.90;;;13.60;99.90;;;;;;4962508;28;20034;-77
2022/09/14 02:22:12;;;;;;;6.90;3.05;;;13.60;99.90;;;;;;4968098;28;20039;-77
2022/09/14 02:24:39;;;;;;;5.38;2.72;;;13.60;99.90;;;;;;4979566;28;20045;-77
2022/09/14 02:27:06;;;;;;;6.53;2.53;;;13.60;99.90;;;;;;4967243;28;20053;-77
2022/09/14 02:29:33;;;;;;;6.50;2.92;;;13.50;99.90;;;;;;4963814;28;20096;-77
2022/09/14 02:32:27;;;;;;;6.28;2.80;;;13.50;99.90;;;;;;4970103;28;20101;-77
2022/09/14 02:35:13;;;;;;;4.65;3.00;;;13.50;99.90;;;;;;4948597;28;20065;-77
2022/09/14 02:37:52;;;;;;;6.00;2.92;;;13.50;99.90;;;;;;4967498;28;20042;-77
2022/09/14 02:40:34;;;;;;;4.65;2.80;;;13.50;99.90;;;;;;4966964;28;20058;-77
2022/09/14 02:43:26;;;;;;;6.20;3.40;;;13.50;99.90;;;;;;4970626;28;20046;-77
2022/09/14 02:45:59;;;;;;;5.82;3.65;;;13.50;99.90;;;;;;4966404;28;20540;-77
2022/09/14 02:48:28;;;;;;;4.70;3.67;;;13.50;99.90;;;;;;4969308;28;20054;-77
2022/09/14 02:51:26;;;;;;;6.10;4.10;;;13.50;99.90;;;;;;4982788;28;20058;-77
2022/09/14 02:54:02;;;;;;;6.00;4.40;;;13.50;99.90;;;;;;4962791;28;20184;-77
2022/09/14 02:56:28;;;;;;;5.75;3.70;;;13.50;99.90;;;;;;4947847;28;20061;-77
2022/09/14 02:58:54;;;;;;;9.27;4.15;;;13.50;99.90;;;;;;4964835;28;20112;-77
2022/09/14 03:01:22;;;;;;;6.82;4.82;;;13.50;99.90;;;;;;4965745;28;20683;-77
2022/09/14 03:03:47;;;;;;;8.18;4.80;;;13.50;99.90;;;;;;4958395;28;20058;-77
2022/09/14 03:06:13;;;;;;;5.78;4.68;;;13.50;99.90;;;;;;4978677;28;20540;-77
2022/09/14 03:08:39;;;;;;;8.60;4.90;;;13.60;99.90;;;;;;4982985;28;20038;-77
2022/09/14 03:11:05;;;;;;;7.90;5.35;;;13.50;99.90;;;;;;4985438;28;20049;-77
2022/09/14 03:13:33;;;;;;;7.28;5.03;;;13.60;99.90;;;;;;4952510;28;20050;-77
2022/09/14 03:16:06;;;;;;;7.75;4.97;;;13.60;99.90;;;;;;4958063;28;20061;-77
2022/09/14 03:18:33;;;;;;;7.63;5.00;;;13.50;99.90;;;;;;4982173;28;20105;-77
2022/09/14 03:21:06;;;;;;;7.28;5.15;;;13.50;99.90;;;;;;4984581;28;20547;-77
2022/09/14 03:23:41;;;;;;;7.30;4.72;;;13.60;99.90;;;;;;4980979;28;20974;-76
2022/09/14 03:26:12;;;;;;;6.53;4.88;;;13.60;99.90;;;;;;4984632;28;20082;-77
2022/09/14 03:28:38;;;;;;;7.13;4.75;;;13.50;99.90;;;;;;4968798;28;20043;-77
2022/09/14 03:31:07;;;;;;;5.97;4.82;;;13.50;99.90;;;;;;4965916;28;20056;-77
2022/09/14 03:33:33;;;;;;;7.57;4.63;;;13.60;99.90;;;;;;4961933;28;20117;-77
2022/09/14 03:35:59;;;;;;;8.13;4.78;;;13.50;99.90;;;;;;4985704;28;20121;-77
2022/09/14 03:38:28;;;;;;;6.00;4.65;;;13.50;99.90;;;;;;4966709;28;20053;-77
2022/09/14 03:40:56;;;;;;;7.25;4.43;;;13.50;99.90;;;;;;4966665;28;20544;-77
2022/09/14 03:43:22;;;;;;;7.93;4.63;;;13.50;99.90;;;;;;4984547;28;20062;-77
2022/09/14 03:45:48;;;;;;;6.95;4.90;;;13.50;99.90;;;;;;4967361;28;20141;-77
2022/09/14 03:48:14;;;;;;;8.57;4.93;;;13.50;99.90;;;;;;4983648;28;20534;-77
2022/09/14 03:50:41;;;;;;;7.40;4.65;;;13.50;99.90;;;;;;4967803;28;20044;-77
2022/09/14 03:53:07;;;;;;;7.10;4.93;;;13.50;99.90;;;;;;4962708;28;20533;-77
2022/09/14 03:55:32;;;;;;;5.53;4.40;;;13.50;99.90;;;;;;4982242;28;20042;-77
2022/09/14 03:57:58;;;;;;;7.03;4.25;;;13.40;99.90;;;;;;4985279;28;20038;-78
2022/09/14 04:00:24;;;;;;;7.05;4.25;;;13.40;99.90;;;;;;4964926;28;20057;-78
2022/09/14 04:02:49;;;;;;;6.53;4.55;;;13.40;99.90;;;;;;4968641;28;20089;-77
2022/09/14 04:05:15;;;;;;;7.93;4.45;;;13.40;99.90;;;;;;4963156;28;20054;-76
2022/09/14 04:07:41;;;;;;;5.20;4.55;;;13.40;99.90;;;;;;4969391;28;20057;-77
2022/09/14 04:10:07;;;;;;;7.32;4.80;;;13.40;99.90;;;;;;4963256;28;20054;-76
2022/09/14 04:12:34;;;;;;;10.13;5.30;;;13.40;99.90;;;;;;4982334;28;20671;-77
2022/09/14 04:15:00;;;;;;;6.78;4.68;;;13.40;99.90;;;;;;4963405;28;20129;-77
2022/09/14 04:17:27;;;;;;;8.88;5.57;;;13.40;99.90;;;;;;4963008;28;20212;-77
2022/09/14 04:19:53;;;;;;;10.05;4.80;;;13.40;99.90;;;;;;4983524;28;20766;-77
2022/09/14 04:22:18;;;;;;;6.45;4.78;;;13.40;99.90;;;;;;4983428;28;20120;-77
2022/09/14 04:24:44;;;;;;;8.38;5.18;;;13.30;99.90;;;;;;4965838;28;20050;-76
2022/09/14 04:27:10;;;;;;;6.70;4.82;;;13.20;99.90;;;;;;4962603;28;20042;-77
2022/09/14 04:29:36;;;;;;;7.05;5.50;;;13.30;99.90;;;;;;4984782;28;20409;-77
2022/09/14 04:32:02;;;;;;;8.10;4.82;;;13.30;99.90;;;;;;4983408;28;20446;-77
2022/09/14 04:34:27;;;;;;;7.82;5.00;;;13.30;99.90;;;;;;4966126;28;20038;-77
2022/09/14 04:36:53;;;;;;;5.53;4.95;;;13.30;99.90;;;;;;4982252;28;20471;-77
2022/09/14 04:39:19;;;;;;;9.45;5.50;;;13.30;99.90;;;;;;4982600;28;20136;-77
2022/09/14 04:41:45;;;;;;;7.53;5.47;;;13.30;99.90;;;;;;4978749;28;20042;-77
2022/09/14 04:44:11;;;;;;;6.90;5.40;;;13.30;99.90;;;;;;4965024;28;20074;-77
2022/09/14 04:46:41;;;;;;;8.07;5.07;;;13.30;99.90;;;;;;4967926;28;20109;-77
2022/09/14 04:49:07;;;;;;;7.63;5.60;;;13.30;99.90;;;;;;4965338;28;20092;-76
2022/09/14 04:51:34;;;;;;;7.28;5.53;;;13.40;99.90;;;;;;4982640;28;20038;-77
2022/09/14 04:54:04;;;;;;;7.07;5.40;;;13.40;99.90;;;;;;4983266;28;20042;-77
2022/09/14 04:56:32;;;;;;;6.93;5.63;;;13.40;99.90;;;;;;4969607;28;20051;-77
2022/09/14 04:58:59;;;;;;;9.32;5.68;;;13.40;99.90;;;;;;4976026;28;20052;-77
2022/09/14 05:01:28;;;;;;;7.13;5.50;;;13.40;99.90;;;;;;4981679;28;20509;-77
2022/09/14 05:03:54;;;;;;;8.98;5.53;;;13.50;99.90;;;;;;4966135;28;20041;-77
2022/09/14 05:06:25;;;;;;;7.53;5.55;;;13.60;99.90;;;;;;4963498;28;20058;-75
2022/09/14 05:08:52;;;;;;;10.02;5.85;;;13.60;99.90;;;;;;4979923;28;20117;-74
2022/09/14 05:11:20;;;;;;;10.07;5.53;;;13.60;99.90;;;;;;4978806;28;20053;-73
2022/09/14 05:13:46;;;;;;;8.48;5.47;;;13.60;99.90;;;;;;4958225;28;20105;-74
2022/09/14 05:16:19;;;;;;;7.90;5.20;;;13.70;99.90;;;;;;4964431;28;20042;-74
2022/09/14 05:18:45;;;;;;;6.97;5.03;;;13.70;99.90;;;;;;4977927;28;20042;-74
2022/09/14 05:21:16;;;;;;;7.78;4.88;;;13.70;99.90;;;;;;4962087;28;20086;-74
2022/09/14 05:23:43;;;;;;;7.88;4.97;;;13.80;99.90;;;;;;4982132;28;20121;-74
2022/09/14 05:26:08;;;;;;;8.50;5.30;;;13.90;99.90;;;;;;4963605;28;20069;-74
2022/09/14 05:28:36;;;;;;;10.95;5.38;;;13.90;99.90;;;;;;4963196;28;20125;-74
2022/09/14 05:31:10;;;;;;;8.00;5.00;;;13.80;99.90;;;;;;4957417;28;20081;-76
2022/09/14 05:33:36;;;;;;;11.20;5.70;;;13.90;99.90;;;;;;4961764;28;20069;-77
2022/09/14 05:36:09;;;;;;;7.82;4.97;;;13.90;99.90;;;;;;4982458;28;20133;-75
2022/09/14 05:38:39;;;;;;;8.40;5.28;;;13.90;99.90;;;;;;4965863;28;20272;-74
2022/09/14 05:41:07;;;;;;;9.23;4.97;;;13.90;99.90;;;;;;4980586;28;20054;-75
2022/09/14 05:43:35;;;;;;;8.30;5.28;;;13.90;99.90;;;;;;4981671;28;20046;-76
2022/09/14 05:46:09;;;;;;;9.13;5.10;;;13.90;99.90;;;;;;4978572;28;20051;-77
2022/09/14 05:48:37;;;;;;;7.80;5.25;;;14.00;99.90;;;;;;4980748;28;20614;-75
2022/09/14 05:51:06;;;;;;;9.73;5.18;;;14.10;99.90;;;;;;4978003;28;20100;-76
2022/09/14 05:53:32;;;;;;;10.48;5.13;;;14.00;99.90;;;;;;4977623;28;20034;-76
2022/09/14 05:56:07;;;;;;;9.65;4.82;;;14.10;99.90;;;;;;4982679;28;20084;-76
2022/09/14 05:58:35;;;;;;;8.98;5.03;;;14.00;99.90;;;;;;4976971;28;20050;-76
2022/09/14 06:01:06;;;;;;;;;;;14.00;99.90;;;;;;4973941;28;20144;-76
2022/09/14 06:03:32;;;;;;;7.35;5.40;;;14.00;99.90;;;;;;4977003;28;19922;-75
2022/09/14 06:05:58;;;;;;;8.68;5.38;;;14.00;99.90;;;;;;4979470;28;20073;-75
2022/09/14 06:08:24;;;;;;;9.93;4.85;;;14.10;99.90;;;;;;4979605;28;20326;-75
2022/09/14 06:10:50;;;;;;;7.53;5.65;;;14.10;99.90;;;;;;4979357;28;20046;-75
2022/09/14 06:13:17;;;;;;;6.63;5.53;;;14.10;99.90;;;;;;4980585;28;20049;-75
2022/09/14 06:15:43;;;;;;;11.23;5.88;;;14.10;99.90;;;;;;4958047;28;20054;-75
2022/09/14 06:18:11;;;;;;;8.88;5.63;;;14.10;99.90;;;;;;4977324;28;20118;-75
2022/09/14 06:20:37;;;;;;;9.18;6.00;;;14.10;99.90;;;;;;4958146;28;20054;-75
2022/09/14 06:23:03;;;;;;;9.65;6.00;;;14.10;99.90;;;;;;4980560;28;20041;-75
2022/09/14 06:25:30;;;;;;;11.00;6.10;;;14.10;99.90;;;;;;4980043;28;20097;-75
2022/09/14 06:27:56;;;;;;;6.45;5.47;;;14.20;99.90;;;;;;4978614;28;20034;-75
2022/09/14 06:30:21;;;;;;;9.50;6.28;;;14.20;99.90;;;;;;4982772;28;20108;-77
2022/09/14 06:32:47;;;;;;;10.38;6.97;;;14.20;99.90;;;;;;4973910;28;20046;-77
2022/09/14 06:35:16;;;;;;;7.70;6.28;;;14.30;99.90;;;;;;4982020;28;20423;-75
2022/09/14 06:37:41;;;;;;;8.32;6.07;;;14.20;99.90;;;;;;4955756;28;20097;-80
2022/09/14 06:40:07;;;;;;;8.63;6.40;;;14.30;99.90;;;;;;4974496;28;20118;-81
2022/09/14 06:42:33;;;;;;;8.50;6.60;;;14.30;99.90;;;;;;4959232;28;20046;-83
2022/09/14 06:44:58;;;;;;;10.30;7.00;;;14.30;99.90;;;;;;4981269;28;20047;-81
2022/09/14 06:47:24;;;;;;;10.75;6.90;;;14.30;99.90;;;;;;4978863;28;20054;-80
2022/09/14 06:49:50;;;;;;;10.82;6.47;;;14.40;99.90;;;;;;4983114;28;20045;-78
2022/09/14 06:52:16;;;;;;;9.73;6.50;;;14.40;99.90;;;;;;4981452;28;20097;-80
2022/09/14 06:54:42;;;;;;;8.15;6.80;;;14.50;99.90;;;;;;4982135;28;20046;-80
2022/09/14 06:57:07;;;;;;;11.10;6.90;;;14.50;99.90;;;;;;4981515;28;20054;-79
2022/09/14 06:59:33;;;;;;;8.65;6.38;;;14.50;99.90;;;;;;4980999;28;20125;-83
2022/09/14 07:01:58;;;;;;;9.10;6.22;;;14.60;99.90;;;;;;4978610;28;20056;-77
2022/09/14 07:04:24;;;;;;;8.18;6.43;;;14.60;99.90;;;;;;4974022;28;20042;-79
2022/09/14 07:06:50;;;;;;;8.13;6.53;;;14.60;99.90;;;;;;4927935;28;1070697;-79
2022/09/14 07:09:18;;;;;;;8.98;6.50;;;14.60;99.90;;;;;;4984545;28;20309;-75
2022/09/14 07:11:44;;;;;;;8.32;6.47;;;14.60;99.90;;;;;;4970306;28;20045;-75
2022/09/14 07:14:10;;;;;;;8.30;6.25;;;14.70;99.90;;;;;;4982085;28;20454;-79
2022/09/14 07:16:38;;;;;;;8.63;6.75;;;14.70;99.90;;;;;;4968152;28;20069;-77
2022/09/14 07:19:08;;;;;;;9.65;6.45;;;14.70;99.90;;;;;;4987503;28;20058;-79
2022/09/14 07:21:34;;;;;;;10.43;7.00;;;14.90;99.90;;;;;;4982826;28;20441;-76
2022/09/14 07:24:01;;;;;;;11.18;6.97;;;14.90;99.90;;;;;;4962737;28;20108;-77
2022/09/14 07:26:30;;;;;;;9.73;7.28;;;14.90;99.90;;;;;;4994369;28;20041;-78
2022/09/14 07:29:02;;;;;;;8.40;7.38;;;15.00;99.90;;;;;;4989818;28;20047;-80
2022/09/14 07:31:34;;;;;;;9.45;7.10;;;15.00;99.90;;;;;;4990088;28;20401;-76
2022/09/14 07:34:02;;;;;;;10.73;6.93;;;15.00;99.90;;;;;;4967963;28;20047;-75
2022/09/14 07:36:28;;;;;;;9.43;7.10;;;15.10;99.90;;;;;;4968613;28;20042;-76
2022/09/14 07:38:55;;;;;;;8.77;7.00;;;15.10;99.90;;;;;;4991799;28;20119;-75
2022/09/14 07:41:22;;;;;;;10.02;6.47;;;15.10;99.90;;;;;;4957325;28;20457;-75
2022/09/14 07:43:52;;;;;;;10.60;6.45;;;15.20;99.90;;;;;;4986188;28;20486;-74
2022/09/14 07:46:19;;;;;;;9.15;6.90;;;15.30;99.90;;;;;;4967682;28;20064;-77
2022/09/14 07:48:45;;;;;;;10.40;7.20;;;15.30;99.90;;;;;;4989141;28;20121;-76
2022/09/14 07:51:11;;;;;;;8.27;6.80;;;15.40;99.90;;;;;;4969574;28;20494;-75
2022/09/14 07:53:41;;;;;;;10.02;6.95;;;15.40;99.90;;;;;;4986891;28;20057;-76
2022/09/14 07:56:07;;;;;;;12.63;8.05;;;15.50;99.90;;;;;;4987316;28;20149;-76
2022/09/14 07:58:33;;;;;;;8.80;7.50;;;15.60;99.90;;;;;;4987820;28;20066;-75
2022/09/14 08:01:00;;;;;;;8.35;7.18;;;15.60;99.90;;;;;;4965895;28;20109;-76
2022/09/14 08:03:27;;;;;;;10.95;7.53;;;15.70;99.90;;;;;;4988170;28;20094;-75
2022/09/14 08:06:17;;;;;;;10.15;6.78;;;15.70;99.90;;;;;;4968068;28;20585;-76
2022/09/14 08:08:44;;;;;;;9.05;6.95;;;15.80;99.90;;;;;;4987358;28;20101;-75
2022/09/14 08:11:30;;;;;;;9.07;6.90;;;15.90;99.90;;;;;;4966430;28;20074;-76
2022/09/14 08:13:59;;;;;;;12.48;7.10;;;16.00;99.90;;;;;;4986082;28;20082;-76
2022/09/14 08:16:26;;;;;;;11.10;6.75;;;16.10;99.90;;;;;;4986666;28;20075;-75
2022/09/14 08:18:58;;;;;;;13.32;7.07;;;16.10;99.90;;;;;;4983531;28;20821;-81
2022/09/14 08:21:25;;;;;;;12.13;7.35;;;16.20;99.90;;;;;;4962496;28;20125;-83
2022/09/14 08:23:51;;;;;;;12.35;6.88;;;16.30;99.90;;;;;;4984805;28;20081;-81
2022/09/14 08:26:18;;;;;;;11.95;8.05;;;16.40;99.90;;;;;;4968449;28;20567;-81
2022/09/14 08:28:45;;;;;;;13.13;8.75;;;16.50;99.90;;;;;;4988218;28;20050;-78
2022/09/14 08:31:14;;;;;;;10.95;5.95;;;16.60;99.90;;;;;;4970162;28;20530;-75
2022/09/14 08:33:43;;;;;;;10.63;5.13;;;16.70;99.90;;;;;;4963994;28;20046;-76
2022/09/14 08:36:10;;;;;;;10.30;5.05;;;16.80;99.90;;;;;;4968619;28;20050;-74
2022/09/14 08:38:36;;;;;;;;;;;16.90;99.90;;;;;;4963907;28;20047;-74
2022/09/14 08:41:36;;;;;;;9.07;4.00;;;17.00;99.90;;;;;;4962414;28;19975;-74
2022/09/14 08:44:19;;;;;;;6.80;2.40;;;17.00;99.90;;;;;;4974042;28;20038;-74
2022/09/14 08:46:57;;;;;;;5.72;2.38;;;17.10;99.90;;;;;;4984952;28;20073;-74
2022/09/14 08:49:37;;;;;;;8.85;2.28;;;17.10;99.90;;;;;;4964021;28;20055;-74
2022/09/14 08:52:03;;;;;;;6.57;2.47;;;17.20;99.90;;;;;;4968391;28;20042;-74
2022/09/14 08:54:33;;;;;;;10.32;3.00;;;17.20;99.90;;;;;;4981273;28;20070;-74
2022/09/14 08:57:18;;;;;;;7.53;2.50;;;17.20;99.90;;;;;;4963636;28;20046;-75
2022/09/14 09:00:04;;;;;;;6.45;2.78;;;17.30;99.90;;;;;;4983166;28;20053;-74
2022/09/14 09:02:50;;;;;;;11.05;2.13;;;17.30;99.90;;;;;;4964635;28;20050;-75
2022/09/14 09:05:34;;;;;;;7.40;1.60;;;17.30;99.90;;;;;;4969882;28;20069;-76
2022/09/14 09:08:16;;;;;;;7.85;1.38;;;17.40;99.90;;;;;;4981353;28;20135;-76
2022/09/14 09:10:42;;;;;;;4.38;1.00;;;17.40;99.90;;;;;;4982324;28;20034;-73
2022/09/14 09:13:14;;;;;;;6.88;1.67;;;17.50;99.90;;;;;;4968019;28;20521;-75
2022/09/14 09:15:50;;;;;;;5.95;1.40;;;17.50;99.90;;;;;;4981872;28;20034;-75
2022/09/14 09:18:23;;;;;;;7.80;1.58;;;17.50;99.90;;;;;;4949867;28;20047;-75
2022/09/14 09:20:57;;;;;;;6.95;1.30;;;17.60;99.90;;;;;;4952960;28;20096;-75
2022/09/14 09:23:26;;;;;;;3.92;1.10;;;17.70;99.90;;;;;;4980575;28;20602;-75
2022/09/14 09:25:55;;;;;;;7.78;1.58;;;17.80;99.90;;;;;;4967546;28;20494;-75
2022/09/14 09:28:22;;;;;;;8.05;1.60;;;17.80;99.90;;;;;;4969041;28;20043;-76
2022/09/14 09:30:48;;;;;;;;;;;17.90;99.90;;;;;;4980939;28;20038;-76
2022/09/14 09:33:22;;;;;;;5.93;1.50;;;18.00;99.90;;;;;;4968514;28;20298;-75
2022/09/14 09:35:49;;;;;;;6.15;1.42;;;18.10;99.90;;;;;;4986278;28;20034;-78
2022/09/14 09:38:18;;;;;;;3.53;1.10;;;18.10;99.90;;;;;;4982880;28;20152;-75
2022/09/14 09:40:52;;;;;;;7.68;1.40;;;18.10;99.90;;;;;;4967944;28;20069;-75
2022/09/14 09:43:19;;;;;;;6.82;1.30;;;18.20;99.90;;;;;;4985016;28;20639;-75
2022/09/14 09:45:48;;;;;;;4.47;1.25;;;18.20;99.90;;;;;;4983015;28;20502;-75
2022/09/14 09:48:16;;;;;;;11.13;4.57;;;18.30;99.90;;;;;;4977789;28;20328;-78
2022/09/14 09:51:15;;;;;;;10.13;5.10;;;18.30;99.90;;;;;;4978362;28;20475;-77
2022/09/14 09:54:12;;;;;;;5.63;1.40;;;18.30;99.90;;;;;;4974420;28;20053;-80
2022/09/14 09:56:51;;;;;;;3.28;0.90;;;18.30;99.90;;;;;;4978106;28;20077;-84
2022/09/14 09:59:35;;;;;;;5.43;1.92;;;18.20;99.90;;;;;;4974342;28;20070;-83
2022/09/14 10:02:25;;;;;;;4.10;1.70;;;18.30;99.90;;;;;;4967934;28;20060;-79
2022/09/14 10:05:18;;;;;;;3.60;0.93;;;18.30;99.90;;;;;;4983143;28;20052;-81
2022/09/14 10:08:00;;;;;;;6.57;0.88;;;18.40;99.90;;;;;;4983002;28;20076;-83
2022/09/14 10:10:41;;;;;;;6.75;0.98;;;18.40;99.90;;;;;;4964898;28;20496;-79
2022/09/14 10:13:26;;;;;;;4.03;0.90;;;18.40;99.90;;;;;;4960871;28;20039;-77
2022/09/14 10:16:25;;;;;;;3.70;0.93;;;18.40;99.90;;;;;;5002314;28;20064;-79
2022/09/14 10:18:52;;;;;;;3.13;0.65;;;18.40;99.90;;;;;;4969583;28;20137;-85
2022/09/14 10:21:20;;;;;;;3.20;0.77;;;18.40;99.90;;;;;;4983538;28;20050;-83
2022/09/14 10:24:19;;;;;;;5.93;0.90;;;18.40;99.90;;;;;;4979546;28;20407;-86
2022/09/14 10:26:45;;;;;;;7.88;1.40;;;18.30;99.90;;;;;;4985859;28;20138;-90
2022/09/14 10:29:29;;;;;;;3.80;0.73;;;18.30;99.90;;;;;;4951274;28;20046;-81
2022/09/14 10:32:09;;;;;;;2.67;0.80;;;18.30;99.90;;;;;;4963646;28;20125;-77
2022/09/14 10:34:35;;;;;;;5.50;0.90;;;18.40;99.90;;;;;;4985178;28;20400;-84
2022/09/14 10:37:15;;;;;;;5.18;1.52;;;18.30;99.90;;;;;;4965674;28;20050;-85
2022/09/14 10:40:17;;;;;;;3.53;0.80;;;18.40;99.90;;;;;;4968664;28;20073;-80
2022/09/14 10:43:04;;;;;;;5.22;1.08;;;18.40;99.90;;;;;;4988331;28;20046;-80
2022/09/14 10:45:45;;;;;;;6.03;1.33;;;18.40;99.90;;;;;;4986019;28;20038;-79
2022/09/14 10:48:48;;;;;;;3.45;0.95;;;18.40;99.90;;;;;;4969162;28;20050;-84
2022/09/14 10:51:23;;;;;;;3.38;0.90;;;18.40;99.90;;;;;;4966280;28;20050;-84
2022/09/14 10:54:27;;;;;;;4.22;1.30;;;18.40;99.90;;;;;;4980985;28;20084;-75
2022/09/14 10:57:23;;;;;;;5.10;0.90;;;18.40;99.90;;;;;;4977564;28;20050;-76
2022/09/14 10:59:59;;;;;;;8.50;1.27;;;18.50;99.90;;;;;;4979424;28;20053;-75
2022/09/14 11:02:43;;;;;;;5.80;0.90;;;18.50;99.90;;;;;;4972128;28;20770;-77
2022/09/14 11:05:22;;;;;;;3.22;0.95;;;18.60;99.90;;;;;;4986550;28;20062;-76
2022/09/14 11:07:54;;;;;;;4.03;1.00;;;18.60;99.90;;;;;;4986861;28;20145;-75
2022/09/14 11:10:28;;;;;;;2.25;0.75;;;18.60;99.90;;;;;;4966379;28;20086;-75
2022/09/14 11:13:00;;;;;;;5.10;1.15;;;18.60;99.90;;;;;;4968071;28;20129;-76
2022/09/14 11:15:36;;;;;;;4.88;1.00;;;18.70;99.90;;;;;;4982085;28;20046;-77
2022/09/14 11:18:38;;;;;;;6.85;1.10;;;18.70;99.90;;;;;;4972054;28;20076;-77
2022/09/14 11:21:46;;;;;;;4.63;1.15;;;18.70;99.90;;;;;;4966415;28;20062;-78
2022/09/14 11:24:23;;;;;;;4.82;1.17;;;18.80;99.90;;;;;;4971290;28;20972;-77
2022/09/14 11:27:14;;;;;;;4.35;0.88;;;18.80;99.90;;;;;;4966817;28;20049;-78
2022/09/14 11:29:47;;;;;;;4.82;1.17;;;18.90;99.90;;;;;;4967037;28;20065;-78
2022/09/14 11:32:40;;;;;;;4.13;1.10;;;18.90;99.90;;;;;;4984547;28;20042;-79
2022/09/14 11:35:18;;;;;;;5.05;1.00;;;19.10;99.90;;;;;;4978910;28;20054;-78
2022/09/14 11:38:05;;;;;;;5.90;1.25;;;19.20;99.90;;;;;;4986286;28;20121;-76
2022/09/14 11:40:48;;;;;;;6.95;1.10;;;19.30;99.90;;;;;;4976617;23;20342;-81
2022/09/14 11:43:46;;;;;;;7.78;1.30;;;19.40;99.90;;;;;;4999211;28;20046;-79
2022/09/14 11:46:35;;;;;;;2.80;1.02;;;19.60;99.90;;;;;;4998300;28;20658;-79
2022/09/14 11:49:19;;;;;;;3.17;0.90;;;19.70;99.90;;;;;;4993545;28;20077;-79
2022/09/14 11:51:57;;;;;;;2.92;1.20;;;19.70;99.90;;;;;;5008949;28;20096;-78
2022/09/14 11:54:33;;;;;;;2.58;0.90;;;19.70;99.90;;;;;;4989436;28;20050;-79
2022/09/14 11:57:31;;;;;;;5.05;1.05;;;19.90;99.90;;;;;;4990096;23;20054;-78
2022/09/14 12:00:26;;;;;;;3.78;1.20;;;20.00;99.90;;;;;;5011719;23;20485;-80
2022/09/14 12:03:16;;;;;;;4.43;0.93;;;20.20;99.90;;;;;;4980936;28;20115;-76
2022/09/14 12:06:17;;;;;;;3.40;1.02;;;20.30;99.90;;;;;;4983683;28;20116;-78
2022/09/14 12:09:22;;;;;;;5.97;1.10;;;20.40;99.90;;;;;;4981210;28;20158;-79
2022/09/14 12:12:02;;;;;;;3.65;1.00;;;20.40;99.90;;;;;;4961989;28;20057;-80
2022/09/14 12:14:39;;;;;;;5.03;1.10;;;20.30;99.90;;;;;;4985717;28;20038;-81
2022/09/14 12:17:25;;;;;;;2.63;0.90;;;20.20;99.90;;;;;;4984605;28;20047;-80
2022/09/14 12:20:35;;;;;;;5.97;1.00;;;20.20;99.90;;;;;;4982917;28;20042;-80
2022/09/14 12:23:31;;;;;;;3.97;0.90;;;20.20;99.90;;;;;;4969564;28;20046;-79
2022/09/14 12:26:09;;;;;;;5.28;1.00;;;20.20;99.90;;;;;;4979782;28;20045;-78
2022/09/14 12:28:47;;;;;;;4.32;1.10;;;20.20;99.90;;;;;;5001397;23;20098;-82
2022/09/14 12:31:53;;;;;;;4.20;1.20;;;20.30;99.90;;;;;;5002295;28;20342;-82
2022/09/14 12:34:37;;;;;;;5.60;1.15;;;20.30;99.90;;;;;;4996810;28;20046;-78
2022/09/14 12:37:28;;;;;;;4.05;1.00;;;20.40;99.90;;;;;;4997082;28;20374;-82
2022/09/14 12:40:30;;;;;;;3.78;0.95;;;20.40;99.90;;;;;;4999012;28;21092;-81
2022/09/14 12:42:55;;;;;;;3.25;1.05;;;20.50;99.90;;;;;;4997996;28;20052;-76
2022/09/14 12:45:50;;;;;;;5.82;1.20;;;20.40;99.90;;;;;;4999057;28;20034;-76
2022/09/14 12:48:47;;;;;;;5.65;1.23;;;20.40;99.90;;;;;;5014009;28;20046;-76
2022/09/14 12:51:43;;;;;;;4.88;1.15;;;20.40;99.90;;;;;;5003847;28;20125;-76
2022/09/14 12:54:08;;;;;;;5.55;1.27;;;20.40;99.90;;;;;;5006429;28;20056;-77
2022/09/14 12:56:34;;;;;;;3.75;1.17;;;20.30;99.90;;;;;;5002391;28;20042;-83
2022/09/14 12:59:30;;;;;;;7.07;1.05;;;20.30;99.90;;;;;;5001907;28;20072;-86
2022/09/14 13:02:29;;;;;;;4.28;1.00;;;20.30;99.90;;;;;;4995526;28;20188;-81
2022/09/14 13:05:13;;;;;;;4.40;1.08;;;20.20;99.90;;;;;;5003017;28;20041;-84
2022/09/14 13:07:39;;;;;;;5.97;1.50;;;20.10;99.90;;;;;;5001287;28;20065;-78
2022/09/14 13:10:06;;;;;;;4.72;1.33;;;20.10;99.90;;;;;;4998240;28;20377;-81
2022/09/14 13:12:46;;;;;;;5.13;1.20;;;20.10;99.90;;;;;;5001149;28;20121;-81
2022/09/14 13:15:18;;;;;;;3.47;1.10;;;20.10;99.90;;;;;;4994461;28;20132;-81
2022/09/14 13:18:16;;;;;;;6.43;1.38;;;20.10;99.90;;;;;;5008399;28;20076;-80
2022/09/14 13:20:53;;;;;;;5.70;1.30;;;20.10;99.90;;;;;;5002649;28;20108;-82